sensor_id;sensor_type;location;lat;lon;timestamp;P1;durP1;ratioP1;P2;durP2;ratioP2
65170;SDS011;51757;52.208;5.162;2022-08-02T00:01:42;0.00;;;0.00;;
65170;SDS011;51757;52.208;5.162;2022-08-02T00:04:08;0.00;;;0.00;;
65170;SDS011;51757;52.208;5.162;2022-08-02T00:06:36;0.00;;;0.00;;
65170;SDS011;51757;52.208;5.162;2022-08-02T00:09:07;0.00;;;0.00;;
65170;SDS011;51757;52.208;5.162;2022-08-02T00:11:34;0.00;;;0.00;;
65170;SDS011;51757;52.208;5.162;2022-08-02T00:14:02;0.00;;;0.00;;
65170;SDS011;51757;52.208;5.162;2022-08-02T00:16:40;0.00;;;0.00;;
65170;SDS011;51757;52.208;5.162;2022-08-02T00:19:05;0.00;;;0.00;;
65170;SDS011;51757;52.208;5.162;2022-08-02T00:21:31;0.00;;;0.00;;
65170;SDS011;51757;52.208;5.162;2022-08-02T00:24:00;0.00;;;0.00;;
65170;SDS011;51757;52.208;5.162;2022-08-02T00:26:35;0.00;;;0.00;;
65170;SDS011;51757;52.208;5.162;2022-08-02T00:29:01;0.00;;;0.00;;
65170;SDS011;51757;52.208;5.162;2022-08-02T00:38:19;0.00;;;0.00;;
65170;SDS011;51757;52.208;5.162;2022-08-02T00:41:13;0.00;;;0.00;;
65170;SDS011;51757;52.208;5.162;2022-08-02T00:44:07;0.00;;;0.00;;
65170;SDS011;51757;52.208;5.162;2022-08-02T00:46:48;0.00;;;0.00;;
65170;SDS011;51757;52.208;5.162;2022-08-02T00:49:29;0.00;;;0.00;;
65170;SDS011;51757;52.208;5.162;2022-08-02T00:52:01;0.00;;;0.00;;
65170;SDS011;51757;52.208;5.162;2022-08-02T00:54:38;0.00;;;0.00;;
65170;SDS011;51757;52.208;5.162;2022-08-02T00:57:04;0.00;;;0.00;;
65170;SDS011;51757;52.208;5.162;2022-08-02T00:59:38;0.00;;;0.00;;
65170;SDS011;51757;52.208;5.162;2022-08-02T01:02:13;0.00;;;0.00;;
65170;SDS011;51757;52.208;5.162;2022-08-02T01:04:56;0.00;;;0.00;;
65170;SDS011;51757;52.208;5.162;2022-08-02T01:07:31;0.00;;;0.00;;
65170;SDS011;51757;52.208;5.162;2022-08-02T01:09:59;0.00;;;0.00;;
65170;SDS011;51757;52.208;5.162;2022-08-02T01:12:25;0.00;;;0.00;;
65170;SDS011;51757;52.208;5.162;2022-08-02T01:14:54;0.00;;;0.00;;
65170;SDS011;51757;52.208;5.162;2022-08-02T01:17:35;0.00;;;0.00;;
65170;SDS011;51757;52.208;5.162;2022-08-02T01:23:02;0.00;;;0.00;;
65170;SDS011;51757;52.208;5.162;2022-08-02T01:31:33;0.00;;;0.00;;
65170;SDS011;51757;52.208;5.162;2022-08-02T01:34:20;0.00;;;0.00;;
65170;SDS011;51757;52.208;5.162;2022-08-02T01:37:00;0.00;;;0.00;;
65170;SDS011;51757;52.208;5.162;2022-08-02T01:39:31;0.00;;;0.00;;
65170;SDS011;51757;52.208;5.162;2022-08-02T01:41:58;0.00;;;0.00;;
65170;SDS011;51757;52.208;5.162;2022-08-02T01:44:32;0.00;;;0.00;;
65170;SDS011;51757;52.208;5.162;2022-08-02T01:47:02;0.00;;;0.00;;
65170;SDS011;51757;52.208;5.162;2022-08-02T01:49:37;0.00;;;0.00;;
65170;SDS011;51757;52.208;5.162;2022-08-02T01:52:03;0.00;;;0.00;;
65170;SDS011;51757;52.208;5.162;2022-08-02T01:55:02;0.00;;;0.00;;
65170;SDS011;51757;52.208;5.162;2022-08-02T01:57:48;0.00;;;0.00;;
65170;SDS011;51757;52.208;5.162;2022-08-02T02:00:21;0.00;;;0.00;;
65170;SDS011;51757;52.208;5.162;2022-08-02T02:02:51;0.00;;;0.00;;
65170;SDS011;51757;52.208;5.162;2022-08-02T02:05:22;0.00;;;0.00;;
65170;SDS011;51757;52.208;5.162;2022-08-02T02:07:55;0.00;;;0.00;;
65170;SDS011;51757;52.208;5.162;2022-08-02T02:10:29;0.00;;;0.00;;
65170;SDS011;51757;52.208;5.162;2022-08-02T02:12:57;0.00;;;0.00;;
65170;SDS011;51757;52.208;5.162;2022-08-02T02:15:33;0.00;;;0.00;;
65170;SDS011;51757;52.208;5.162;2022-08-02T02:18:05;0.00;;;0.00;;
65170;SDS011;51757;52.208;5.162;2022-08-02T02:20:36;0.00;;;0.00;;
65170;SDS011;51757;52.208;5.162;2022-08-02T02:23:27;0.00;;;0.00;;
65170;SDS011;51757;52.208;5.162;2022-08-02T02:26:02;0.00;;;0.00;;
65170;SDS011;51757;52.208;5.162;2022-08-02T02:28:38;0.00;;;0.00;;
65170;SDS011;51757;52.208;5.162;2022-08-02T02:31:10;0.00;;;0.00;;
65170;SDS011;51757;52.208;5.162;2022-08-02T02:33:39;0.00;;;0.00;;
65170;SDS011;51757;52.208;5.162;2022-08-02T02:36:12;0.00;;;0.00;;
65170;SDS011;51757;52.208;5.162;2022-08-02T02:38:43;0.00;;;0.00;;
65170;SDS011;51757;52.208;5.162;2022-08-02T02:41:12;0.00;;;0.00;;
65170;SDS011;51757;52.208;5.162;2022-08-02T02:43:38;0.00;;;0.00;;
65170;SDS011;51757;52.208;5.162;2022-08-02T02:46:05;0.00;;;0.00;;
65170;SDS011;51757;52.208;5.162;2022-08-02T02:48:31;0.00;;;0.00;;
65170;SDS011;51757;52.208;5.162;2022-08-02T02:51:08;0.00;;;0.00;;
65170;SDS011;51757;52.208;5.162;2022-08-02T02:53:47;0.00;;;0.00;;
65170;SDS011;51757;52.208;5.162;2022-08-02T02:56:15;0.00;;;0.00;;
65170;SDS011;51757;52.208;5.162;2022-08-02T02:58:50;0.00;;;0.00;;
65170;SDS011;51757;52.208;5.162;2022-08-02T03:01:25;0.00;;;0.00;;
65170;SDS011;51757;52.208;5.162;2022-08-02T03:04:12;0.00;;;0.00;;
65170;SDS011;51757;52.208;5.162;2022-08-02T03:06:49;0.00;;;0.00;;
65170;SDS011;51757;52.208;5.162;2022-08-02T03:09:14;0.00;;;0.00;;
65170;SDS011;51757;52.208;5.162;2022-08-02T03:11:43;0.00;;;0.00;;
65170;SDS011;51757;52.208;5.162;2022-08-02T03:14:26;0.00;;;0.00;;
65170;SDS011;51757;52.208;5.162;2022-08-02T03:16:55;0.00;;;0.00;;
65170;SDS011;51757;52.208;5.162;2022-08-02T03:19:21;0.00;;;0.00;;
65170;SDS011;51757;52.208;5.162;2022-08-02T03:21:47;0.00;;;0.00;;
65170;SDS011;51757;52.208;5.162;2022-08-02T03:24:23;0.00;;;0.00;;
65170;SDS011;51757;52.208;5.162;2022-08-02T03:26:52;0.00;;;0.00;;
65170;SDS011;51757;52.208;5.162;2022-08-02T03:29:24;0.00;;;0.00;;
65170;SDS011;51757;52.208;5.162;2022-08-02T03:32:03;0.00;;;0.00;;
65170;SDS011;51757;52.208;5.162;2022-08-02T03:34:32;0.00;;;0.00;;
65170;SDS011;51757;52.208;5.162;2022-08-02T03:37:02;0.00;;;0.00;;
65170;SDS011;51757;52.208;5.162;2022-08-02T03:39:34;0.00;;;0.00;;
65170;SDS011;51757;52.208;5.162;2022-08-02T03:42:03;0.00;;;0.00;;
65170;SDS011;51757;52.208;5.162;2022-08-02T03:44:34;0.00;;;0.00;;
65170;SDS011;51757;52.208;5.162;2022-08-02T03:47:07;0.00;;;0.00;;
65170;SDS011;51757;52.208;5.162;2022-08-02T03:49:33;0.00;;;0.00;;
65170;SDS011;51757;52.208;5.162;2022-08-02T03:52:06;0.00;;;0.00;;
65170;SDS011;51757;52.208;5.162;2022-08-02T03:54:36;0.00;;;0.00;;
65170;SDS011;51757;52.208;5.162;2022-08-02T03:57:01;0.00;;;0.00;;
65170;SDS011;51757;52.208;5.162;2022-08-02T03:59:41;0.00;;;0.00;;
65170;SDS011;51757;52.208;5.162;2022-08-02T04:05:06;0.00;;;0.00;;
65170;SDS011;51757;52.208;5.162;2022-08-02T04:07:38;0.00;;;0.00;;
65170;SDS011;51757;52.208;5.162;2022-08-02T04:10:11;0.00;;;0.00;;
65170;SDS011;51757;52.208;5.162;2022-08-02T04:12:45;0.00;;;0.00;;
65170;SDS011;51757;52.208;5.162;2022-08-02T04:15:14;0.00;;;0.00;;
65170;SDS011;51757;52.208;5.162;2022-08-02T04:17:43;0.00;;;0.00;;
65170;SDS011;51757;52.208;5.162;2022-08-02T04:20:21;0.00;;;0.00;;
65170;SDS011;51757;52.208;5.162;2022-08-02T04:22:59;0.00;;;0.00;;
65170;SDS011;51757;52.208;5.162;2022-08-02T04:25:31;0.00;;;0.00;;
65170;SDS011;51757;52.208;5.162;2022-08-02T04:28:01;0.00;;;0.00;;
65170;SDS011;51757;52.208;5.162;2022-08-02T04:32:57;0.00;;;0.00;;
65170;SDS011;51757;52.208;5.162;2022-08-02T04:35:23;0.00;;;0.00;;
65170;SDS011;51757;52.208;5.162;2022-08-02T04:37:57;0.00;;;0.00;;
65170;SDS011;51757;52.208;5.162;2022-08-02T04:40:23;0.00;;;0.00;;
65170;SDS011;51757;52.208;5.162;2022-08-02T04:42:49;0.00;;;0.00;;
65170;SDS011;51757;52.208;5.162;2022-08-02T04:45:17;0.00;;;0.00;;
65170;SDS011;51757;52.208;5.162;2022-08-02T04:47:43;0.00;;;0.00;;
65170;SDS011;51757;52.208;5.162;2022-08-02T04:50:20;0.00;;;0.00;;
65170;SDS011;51757;52.208;5.162;2022-08-02T04:52:58;0.00;;;0.00;;
65170;SDS011;51757;52.208;5.162;2022-08-02T04:55:51;0.00;;;0.00;;
65170;SDS011;51757;52.208;5.162;2022-08-02T04:58:22;0.00;;;0.00;;
65170;SDS011;51757;52.208;5.162;2022-08-02T05:00:57;0.00;;;0.00;;
65170;SDS011;51757;52.208;5.162;2022-08-02T05:03:22;0.00;;;0.00;;
65170;SDS011;51757;52.208;5.162;2022-08-02T05:05:54;0.00;;;0.00;;
65170;SDS011;51757;52.208;5.162;2022-08-02T05:08:23;0.00;;;0.00;;
65170;SDS011;51757;52.208;5.162;2022-08-02T05:11:12;0.00;;;0.00;;
65170;SDS011;51757;52.208;5.162;2022-08-02T05:16:56;0.00;;;0.00;;
65170;SDS011;51757;52.208;5.162;2022-08-02T05:19:39;0.00;;;0.00;;
65170;SDS011;51757;52.208;5.162;2022-08-02T05:22:07;0.00;;;0.00;;
65170;SDS011;51757;52.208;5.162;2022-08-02T05:24:41;0.00;;;0.00;;
65170;SDS011;51757;52.208;5.162;2022-08-02T05:30:32;0.00;;;0.00;;
65170;SDS011;51757;52.208;5.162;2022-08-02T05:33:27;0.00;;;0.00;;
65170;SDS011;51757;52.208;5.162;2022-08-02T05:36:11;0.00;;;0.00;;
65170;SDS011;51757;52.208;5.162;2022-08-02T05:38:42;0.00;;;0.00;;
65170;SDS011;51757;52.208;5.162;2022-08-02T05:41:13;0.00;;;0.00;;
65170;SDS011;51757;52.208;5.162;2022-08-02T05:46:08;0.00;;;0.00;;
65170;SDS011;51757;52.208;5.162;2022-08-02T05:49:02;0.00;;;0.00;;
65170;SDS011;51757;52.208;5.162;2022-08-02T06:00:09;0.00;;;0.00;;
65170;SDS011;51757;52.208;5.162;2022-08-02T06:03:23;0.00;;;0.00;;
65170;SDS011;51757;52.208;5.162;2022-08-02T06:06:25;0.00;;;0.00;;
65170;SDS011;51757;52.208;5.162;2022-08-02T06:12:28;0.00;;;0.00;;
65170;SDS011;51757;52.208;5.162;2022-08-02T06:15:02;0.00;;;0.00;;
65170;SDS011;51757;52.208;5.162;2022-08-02T06:17:39;0.00;;;0.00;;
65170;SDS011;51757;52.208;5.162;2022-08-02T06:20:11;0.00;;;0.00;;
65170;SDS011;51757;52.208;5.162;2022-08-02T06:23:10;0.00;;;0.00;;
65170;SDS011;51757;52.208;5.162;2022-08-02T06:29:18;0.00;;;0.00;;
65170;SDS011;51757;52.208;5.162;2022-08-02T06:32:19;0.00;;;0.00;;
65170;SDS011;51757;52.208;5.162;2022-08-02T06:35:03;0.00;;;0.00;;
65170;SDS011;51757;52.208;5.162;2022-08-02T06:41:07;0.00;;;0.00;;
65170;SDS011;51757;52.208;5.162;2022-08-02T06:43:44;0.00;;;0.00;;
65170;SDS011;51757;52.208;5.162;2022-08-02T06:46:20;0.00;;;0.00;;
65170;SDS011;51757;52.208;5.162;2022-08-02T06:48:48;0.00;;;0.00;;
65170;SDS011;51757;52.208;5.162;2022-08-02T06:51:39;0.00;;;0.00;;
65170;SDS011;51757;52.208;5.162;2022-08-02T06:54:03;0.00;;;0.00;;
65170;SDS011;51757;52.208;5.162;2022-08-02T06:56:34;0.00;;;0.00;;
65170;SDS011;51757;52.208;5.162;2022-08-02T07:01:49;0.00;;;0.00;;
65170;SDS011;51757;52.208;5.162;2022-08-02T07:04:18;0.00;;;0.00;;
65170;SDS011;51757;52.208;5.162;2022-08-02T07:06:48;0.00;;;0.00;;
65170;SDS011;51757;52.208;5.162;2022-08-02T07:09:22;0.00;;;0.00;;
65170;SDS011;51757;52.208;5.162;2022-08-02T07:11:50;0.00;;;0.00;;
65170;SDS011;51757;52.208;5.162;2022-08-02T07:14:26;0.00;;;0.00;;
65170;SDS011;51757;52.208;5.162;2022-08-02T07:16:57;0.00;;;0.00;;
65170;SDS011;51757;52.208;5.162;2022-08-02T07:19:23;0.00;;;0.00;;
65170;SDS011;51757;52.208;5.162;2022-08-02T07:21:51;0.00;;;0.00;;
65170;SDS011;51757;52.208;5.162;2022-08-02T07:24:55;0.00;;;0.00;;
65170;SDS011;51757;52.208;5.162;2022-08-02T07:30:21;0.00;;;0.00;;
65170;SDS011;51757;52.208;5.162;2022-08-02T07:32:54;0.00;;;0.00;;
65170;SDS011;51757;52.208;5.162;2022-08-02T07:35:20;0.00;;;0.00;;
65170;SDS011;51757;52.208;5.162;2022-08-02T07:37:46;0.00;;;0.00;;
65170;SDS011;51757;52.208;5.162;2022-08-02T07:40:17;0.00;;;0.00;;
65170;SDS011;51757;52.208;5.162;2022-08-02T07:42:43;0.00;;;0.00;;
65170;SDS011;51757;52.208;5.162;2022-08-02T07:45:12;0.00;;;0.00;;
65170;SDS011;51757;52.208;5.162;2022-08-02T07:47:49;0.00;;;0.00;;
65170;SDS011;51757;52.208;5.162;2022-08-02T07:50:16;0.00;;;0.00;;
65170;SDS011;51757;52.208;5.162;2022-08-02T07:52:42;0.00;;;0.00;;
65170;SDS011;51757;52.208;5.162;2022-08-02T07:55:09;0.00;;;0.00;;
65170;SDS011;51757;52.208;5.162;2022-08-02T07:57:39;0.00;;;0.00;;
65170;SDS011;51757;52.208;5.162;2022-08-02T08:00:24;0.00;;;0.00;;
65170;SDS011;51757;52.208;5.162;2022-08-02T08:02:57;0.00;;;0.00;;
65170;SDS011;51757;52.208;5.162;2022-08-02T08:05:37;0.00;;;0.00;;
65170;SDS011;51757;52.208;5.162;2022-08-02T08:08:05;0.00;;;0.00;;
65170;SDS011;51757;52.208;5.162;2022-08-02T08:10:38;0.00;;;0.00;;
65170;SDS011;51757;52.208;5.162;2022-08-02T08:13:07;0.00;;;0.00;;
65170;SDS011;51757;52.208;5.162;2022-08-02T08:15:40;0.00;;;0.00;;
65170;SDS011;51757;52.208;5.162;2022-08-02T08:18:22;0.20;;;0.00;;
65170;SDS011;51757;52.208;5.162;2022-08-02T08:20:51;0.00;;;0.00;;
65170;SDS011;51757;52.208;5.162;2022-08-02T08:23:28;0.00;;;0.00;;
65170;SDS011;51757;52.208;5.162;2022-08-02T08:25:53;0.00;;;0.00;;
65170;SDS011;51757;52.208;5.162;2022-08-02T08:28:19;0.00;;;0.00;;
65170;SDS011;51757;52.208;5.162;2022-08-02T08:31:05;0.10;;;0.00;;
65170;SDS011;51757;52.208;5.162;2022-08-02T08:33:31;0.00;;;0.00;;
65170;SDS011;51757;52.208;5.162;2022-08-02T08:36:04;0.00;;;0.00;;
65170;SDS011;51757;52.208;5.162;2022-08-02T08:38:39;0.00;;;0.00;;
65170;SDS011;51757;52.208;5.162;2022-08-02T08:44:16;0.00;;;0.00;;
65170;SDS011;51757;52.208;5.162;2022-08-02T08:53:10;0.00;;;0.00;;
65170;SDS011;51757;52.208;5.162;2022-08-02T08:55:47;0.22;;;0.00;;
65170;SDS011;51757;52.208;5.162;2022-08-02T08:58:24;0.00;;;0.00;;
65170;SDS011;51757;52.208;5.162;2022-08-02T09:04:45;0.10;;;0.10;;
65170;SDS011;51757;52.208;5.162;2022-08-02T09:07:22;0.00;;;0.00;;
65170;SDS011;51757;52.208;5.162;2022-08-02T09:16:27;0.00;;;0.00;;
65170;SDS011;51757;52.208;5.162;2022-08-02T09:19:18;0.00;;;0.00;;
65170;SDS011;51757;52.208;5.162;2022-08-02T09:22:06;0.00;;;0.00;;
65170;SDS011;51757;52.208;5.162;2022-08-02T10:07:04;0.00;;;0.00;;
65170;SDS011;51757;52.208;5.162;2022-08-02T10:10:08;0.00;;;0.00;;
65170;SDS011;51757;52.208;5.162;2022-08-02T10:12:53;0.10;;;0.00;;
65170;SDS011;51757;52.208;5.162;2022-08-02T10:16:03;0.00;;;0.00;;
65170;SDS011;51757;52.208;5.162;2022-08-02T10:18:36;0.00;;;0.00;;
65170;SDS011;51757;52.208;5.162;2022-08-02T10:21:06;0.00;;;0.00;;
65170;SDS011;51757;52.208;5.162;2022-08-02T10:23:35;0.00;;;0.00;;
65170;SDS011;51757;52.208;5.162;2022-08-02T10:26:25;0.00;;;0.00;;
65170;SDS011;51757;52.208;5.162;2022-08-02T10:29:29;0.00;;;0.00;;
65170;SDS011;51757;52.208;5.162;2022-08-02T10:35:27;0.00;;;0.00;;
65170;SDS011;51757;52.208;5.162;2022-08-02T10:38:01;0.00;;;0.00;;
65170;SDS011;51757;52.208;5.162;2022-08-02T10:40:42;0.00;;;0.00;;
65170;SDS011;51757;52.208;5.162;2022-08-02T10:57:38;0.00;;;0.00;;
65170;SDS011;51757;52.208;5.162;2022-08-02T11:06:26;0.00;;;0.00;;
65170;SDS011;51757;52.208;5.162;2022-08-02T11:09:27;0.00;;;0.00;;
65170;SDS011;51757;52.208;5.162;2022-08-02T11:16:01;0.00;;;0.00;;
65170;SDS011;51757;52.208;5.162;2022-08-02T11:19:07;0.00;;;0.00;;
65170;SDS011;51757;52.208;5.162;2022-08-02T11:24:49;0.00;;;0.00;;
65170;SDS011;51757;52.208;5.162;2022-08-02T11:27:20;0.00;;;0.00;;
65170;SDS011;51757;52.208;5.162;2022-08-02T11:30:27;0.00;;;0.00;;
65170;SDS011;51757;52.208;5.162;2022-08-02T11:33:11;0.00;;;0.00;;
65170;SDS011;51757;52.208;5.162;2022-08-02T11:35:54;0.00;;;0.00;;
65170;SDS011;51757;52.208;5.162;2022-08-02T11:41:40;0.00;;;0.00;;
65170;SDS011;51757;52.208;5.162;2022-08-02T11:44:30;0.00;;;0.00;;
65170;SDS011;51757;52.208;5.162;2022-08-02T11:47:44;0.00;;;0.00;;
65170;SDS011;51757;52.208;5.162;2022-08-02T11:50:13;0.00;;;0.00;;
65170;SDS011;51757;52.208;5.162;2022-08-02T11:53:05;0.00;;;0.00;;
65170;SDS011;51757;52.208;5.162;2022-08-02T11:57:25;0.00;;;0.00;;
65170;SDS011;51757;52.208;5.162;2022-08-02T11:59:55;0.00;;;0.00;;
65170;SDS011;51757;52.208;5.162;2022-08-02T12:02:36;0.00;;;0.00;;
65170;SDS011;51757;52.208;5.162;2022-08-02T12:05:05;0.00;;;0.00;;
65170;SDS011;51757;52.208;5.162;2022-08-02T12:10:51;0.00;;;0.00;;
65170;SDS011;51757;52.208;5.162;2022-08-02T12:13:47;0.00;;;0.00;;
65170;SDS011;51757;52.208;5.162;2022-08-02T12:16:36;0.00;;;0.00;;
65170;SDS011;51757;52.208;5.162;2022-08-02T12:19:32;0.00;;;0.00;;
65170;SDS011;51757;52.208;5.162;2022-08-02T12:22:22;0.00;;;0.00;;
65170;SDS011;51757;52.208;5.162;2022-08-02T12:24:55;0.00;;;0.00;;
65170;SDS011;51757;52.208;5.162;2022-08-02T12:27:38;0.00;;;0.00;;
65170;SDS011;51757;52.208;5.162;2022-08-02T12:30:17;0.00;;;0.00;;
65170;SDS011;51757;52.208;5.162;2022-08-02T12:32:53;0.00;;;0.00;;
65170;SDS011;51757;52.208;5.162;2022-08-02T12:35:32;0.00;;;0.00;;
65170;SDS011;51757;52.208;5.162;2022-08-02T12:38:08;0.00;;;0.00;;
65170;SDS011;51757;52.208;5.162;2022-08-02T12:40:37;0.00;;;0.00;;
65170;SDS011;51757;52.208;5.162;2022-08-02T12:43:06;0.00;;;0.00;;
65170;SDS011;51757;52.208;5.162;2022-08-02T12:45:54;0.03;;;0.03;;
65170;SDS011;51757;52.208;5.162;2022-08-02T12:48:33;0.00;;;0.00;;
65170;SDS011;51757;52.208;5.162;2022-08-02T12:54:11;0.00;;;0.00;;
65170;SDS011;51757;52.208;5.162;2022-08-02T12:56:44;0.00;;;0.00;;
65170;SDS011;51757;52.208;5.162;2022-08-02T12:59:10;0.00;;;0.00;;
65170;SDS011;51757;52.208;5.162;2022-08-02T13:01:35;0.00;;;0.00;;
65170;SDS011;51757;52.208;5.162;2022-08-02T13:04:05;0.00;;;0.00;;
65170;SDS011;51757;52.208;5.162;2022-08-02T13:06:35;0.00;;;0.00;;
65170;SDS011;51757;52.208;5.162;2022-08-02T13:12:05;0.00;;;0.00;;
65170;SDS011;51757;52.208;5.162;2022-08-02T13:14:38;0.03;;;0.03;;
65170;SDS011;51757;52.208;5.162;2022-08-02T13:17:07;0.00;;;0.00;;
65170;SDS011;51757;52.208;5.162;2022-08-02T13:19:38;0.00;;;0.00;;
65170;SDS011;51757;52.208;5.162;2022-08-02T13:22:12;0.00;;;0.00;;
65170;SDS011;51757;52.208;5.162;2022-08-02T13:28:26;0.10;;;0.10;;
65170;SDS011;51757;52.208;5.162;2022-08-02T13:30:59;0.10;;;0.10;;
65170;SDS011;51757;52.208;5.162;2022-08-02T13:33:27;0.10;;;0.10;;
65170;SDS011;51757;52.208;5.162;2022-08-02T13:35:53;0.00;;;0.00;;
65170;SDS011;51757;52.208;5.162;2022-08-02T13:38:18;0.00;;;0.00;;
65170;SDS011;51757;52.208;5.162;2022-08-02T13:40:44;0.00;;;0.00;;
65170;SDS011;51757;52.208;5.162;2022-08-02T13:43:29;0.00;;;0.00;;
65170;SDS011;51757;52.208;5.162;2022-08-02T13:45:57;0.00;;;0.00;;
65170;SDS011;51757;52.208;5.162;2022-08-02T13:48:37;0.00;;;0.00;;
65170;SDS011;51757;52.208;5.162;2022-08-02T13:51:05;0.10;;;0.10;;
65170;SDS011;51757;52.208;5.162;2022-08-02T13:53:39;0.00;;;0.00;;
65170;SDS011;51757;52.208;5.162;2022-08-02T13:56:18;0.00;;;0.00;;
65170;SDS011;51757;52.208;5.162;2022-08-02T13:59:18;0.00;;;0.00;;
65170;SDS011;51757;52.208;5.162;2022-08-02T14:01:43;0.00;;;0.00;;
65170;SDS011;51757;52.208;5.162;2022-08-02T14:04:09;0.05;;;0.05;;
65170;SDS011;51757;52.208;5.162;2022-08-02T14:06:37;0.00;;;0.00;;
65170;SDS011;51757;52.208;5.162;2022-08-02T14:09:23;0.00;;;0.00;;
65170;SDS011;51757;52.208;5.162;2022-08-02T14:11:52;0.10;;;0.10;;
65170;SDS011;51757;52.208;5.162;2022-08-02T14:14:33;0.00;;;0.00;;
65170;SDS011;51757;52.208;5.162;2022-08-02T14:17:06;0.00;;;0.00;;
65170;SDS011;51757;52.208;5.162;2022-08-02T14:19:35;0.00;;;0.00;;
65170;SDS011;51757;52.208;5.162;2022-08-02T14:22:01;0.08;;;0.08;;
65170;SDS011;51757;52.208;5.162;2022-08-02T14:24:33;0.10;;;0.10;;
65170;SDS011;51757;52.208;5.162;2022-08-02T14:27:11;0.10;;;0.10;;
65170;SDS011;51757;52.208;5.162;2022-08-02T14:29:37;0.00;;;0.00;;
65170;SDS011;51757;52.208;5.162;2022-08-02T14:32:16;0.10;;;0.10;;
65170;SDS011;51757;52.208;5.162;2022-08-02T14:39:32;0.00;;;0.00;;
65170;SDS011;51757;52.208;5.162;2022-08-02T14:42:22;0.00;;;0.00;;
65170;SDS011;51757;52.208;5.162;2022-08-02T14:44:56;0.00;;;0.00;;
65170;SDS011;51757;52.208;5.162;2022-08-02T14:47:50;0.00;;;0.00;;
65170;SDS011;51757;52.208;5.162;2022-08-02T14:53:46;0.00;;;0.00;;
65170;SDS011;51757;52.208;5.162;2022-08-02T14:56:26;0.00;;;0.00;;
65170;SDS011;51757;52.208;5.162;2022-08-02T14:59:19;0.00;;;0.00;;
65170;SDS011;51757;52.208;5.162;2022-08-02T15:01:49;0.00;;;0.00;;
65170;SDS011;51757;52.208;5.162;2022-08-02T15:04:38;0.00;;;0.00;;
65170;SDS011;51757;52.208;5.162;2022-08-02T15:07:24;0.00;;;0.00;;
65170;SDS011;51757;52.208;5.162;2022-08-02T15:10:30;0.00;;;0.00;;
65170;SDS011;51757;52.208;5.162;2022-08-02T15:13:31;0.00;;;0.00;;
65170;SDS011;51757;52.208;5.162;2022-08-02T15:15:59;0.10;;;0.10;;
65170;SDS011;51757;52.208;5.162;2022-08-02T15:18:55;0.10;;;0.10;;
65170;SDS011;51757;52.208;5.162;2022-08-02T15:21:39;0.10;;;0.10;;
65170;SDS011;51757;52.208;5.162;2022-08-02T15:24:55;0.00;;;0.00;;
65170;SDS011;51757;52.208;5.162;2022-08-02T15:30:49;0.03;;;0.03;;
65170;SDS011;51757;52.208;5.162;2022-08-02T15:33:43;0.10;;;0.10;;
65170;SDS011;51757;52.208;5.162;2022-08-02T15:58:34;0.10;;;0.10;;
65170;SDS011;51757;52.208;5.162;2022-08-02T16:01:25;0.10;;;0.10;;
65170;SDS011;51757;52.208;5.162;2022-08-02T16:04:02;0.10;;;0.10;;
65170;SDS011;51757;52.208;5.162;2022-08-02T16:06:28;0.10;;;0.10;;
65170;SDS011;51757;52.208;5.162;2022-08-02T16:11:42;0.20;;;0.20;;
65170;SDS011;51757;52.208;5.162;2022-08-02T16:14:10;0.10;;;0.10;;
65170;SDS011;51757;52.208;5.162;2022-08-02T16:16:36;0.10;;;0.10;;
65170;SDS011;51757;52.208;5.162;2022-08-02T16:19:14;0.20;;;0.20;;
65170;SDS011;51757;52.208;5.162;2022-08-02T16:21:45;0.00;;;0.00;;
65170;SDS011;51757;52.208;5.162;2022-08-02T16:24:17;0.17;;;0.17;;
65170;SDS011;51757;52.208;5.162;2022-08-02T16:26:42;0.20;;;0.20;;
65170;SDS011;51757;52.208;5.162;2022-08-02T16:29:08;0.50;;;0.50;;
65170;SDS011;51757;52.208;5.162;2022-08-02T16:31:40;0.50;;;0.50;;
65170;SDS011;51757;52.208;5.162;2022-08-02T16:34:31;0.00;;;0.00;;
65170;SDS011;51757;52.208;5.162;2022-08-02T16:37:06;0.00;;;0.00;;
65170;SDS011;51757;52.208;5.162;2022-08-02T16:39:37;0.22;;;0.22;;
65170;SDS011;51757;52.208;5.162;2022-08-02T16:42:12;0.60;;;0.60;;
65170;SDS011;51757;52.208;5.162;2022-08-02T16:44:41;0.90;;;0.90;;
65170;SDS011;51757;52.208;5.162;2022-08-02T16:47:11;0.95;;;0.95;;
65170;SDS011;51757;52.208;5.162;2022-08-02T16:49:45;1.20;;;1.20;;
65170;SDS011;51757;52.208;5.162;2022-08-02T16:52:10;1.35;;;1.35;;
65170;SDS011;51757;52.208;5.162;2022-08-02T16:54:36;1.20;;;1.20;;
65170;SDS011;51757;52.208;5.162;2022-08-02T16:59:43;1.50;;;1.50;;
65170;SDS011;51757;52.208;5.162;2022-08-02T17:02:09;1.30;;;1.30;;
65170;SDS011;51757;52.208;5.162;2022-08-02T17:04:37;1.30;;;1.30;;
65170;SDS011;51757;52.208;5.162;2022-08-02T17:07:05;1.40;;;1.40;;
65170;SDS011;51757;52.208;5.162;2022-08-02T17:13:15;0.50;;;0.50;;
65170;SDS011;51757;52.208;5.162;2022-08-02T17:15:50;0.40;;;0.40;;
65170;SDS011;51757;52.208;5.162;2022-08-02T17:22:15;0.30;;;0.30;;
65170;SDS011;51757;52.208;5.162;2022-08-02T17:27:47;0.20;;;0.20;;
65170;SDS011;51757;52.208;5.162;2022-08-02T17:44:16;0.00;;;0.00;;
65170;SDS011;51757;52.208;5.162;2022-08-02T17:47:03;0.10;;;0.10;;
65170;SDS011;51757;52.208;5.162;2022-08-02T17:50:12;0.10;;;0.10;;
65170;SDS011;51757;52.208;5.162;2022-08-02T17:52:51;0.00;;;0.00;;
65170;SDS011;51757;52.208;5.162;2022-08-02T17:58:27;0.03;;;0.03;;
65170;SDS011;51757;52.208;5.162;2022-08-02T18:01:28;0.08;;;0.08;;
65170;SDS011;51757;52.208;5.162;2022-08-02T18:12:10;0.03;;;0.03;;
65170;SDS011;51757;52.208;5.162;2022-08-02T18:26:15;0.00;;;0.00;;
65170;SDS011;51757;52.208;5.162;2022-08-02T18:32:20;0.00;;;0.00;;
65170;SDS011;51757;52.208;5.162;2022-08-02T18:38:45;0.00;;;0.00;;
65170;SDS011;51757;52.208;5.162;2022-08-02T19:18:46;0.00;;;0.00;;
65170;SDS011;51757;52.208;5.162;2022-08-02T19:24:59;0.00;;;0.00;;
65170;SDS011;51757;52.208;5.162;2022-08-02T19:31:14;0.00;;;0.00;;
65170;SDS011;51757;52.208;5.162;2022-08-02T19:34:28;0.00;;;0.00;;
65170;SDS011;51757;52.208;5.162;2022-08-02T19:37:35;0.00;;;0.00;;
65170;SDS011;51757;52.208;5.162;2022-08-02T19:53:50;0.00;;;0.00;;
65170;SDS011;51757;52.208;5.162;2022-08-02T19:56:48;0.00;;;0.00;;
65170;SDS011;51757;52.208;5.162;2022-08-02T19:59:16;0.00;;;0.00;;
65170;SDS011;51757;52.208;5.162;2022-08-02T20:01:45;0.00;;;0.00;;
65170;SDS011;51757;52.208;5.162;2022-08-02T20:04:13;0.00;;;0.00;;
65170;SDS011;51757;52.208;5.162;2022-08-02T20:06:39;0.00;;;0.00;;
65170;SDS011;51757;52.208;5.162;2022-08-02T20:12:27;0.00;;;0.00;;
65170;SDS011;51757;52.208;5.162;2022-08-02T20:14:53;0.00;;;0.00;;
65170;SDS011;51757;52.208;5.162;2022-08-02T20:17:23;0.00;;;0.00;;
65170;SDS011;51757;52.208;5.162;2022-08-02T20:37:04;0.00;;;0.00;;
65170;SDS011;51757;52.208;5.162;2022-08-02T20:40:00;0.00;;;0.00;;
65170;SDS011;51757;52.208;5.162;2022-08-02T20:45:44;0.00;;;0.00;;
65170;SDS011;51757;52.208;5.162;2022-08-02T20:48:18;0.00;;;0.00;;
65170;SDS011;51757;52.208;5.162;2022-08-02T20:50:47;0.00;;;0.00;;
65170;SDS011;51757;52.208;5.162;2022-08-02T20:53:19;0.00;;;0.00;;
65170;SDS011;51757;52.208;5.162;2022-08-02T20:55:54;0.00;;;0.00;;
65170;SDS011;51757;52.208;5.162;2022-08-02T20:58:30;0.10;;;0.00;;
65170;SDS011;51757;52.208;5.162;2022-08-02T21:00:55;0.00;;;0.00;;
65170;SDS011;51757;52.208;5.162;2022-08-02T21:03:23;0.00;;;0.00;;
65170;SDS011;51757;52.208;5.162;2022-08-02T21:05:49;0.00;;;0.00;;
65170;SDS011;51757;52.208;5.162;2022-08-02T21:08:15;0.00;;;0.00;;
65170;SDS011;51757;52.208;5.162;2022-08-02T21:10:43;0.00;;;0.00;;
65170;SDS011;51757;52.208;5.162;2022-08-02T21:13:08;0.00;;;0.00;;
65170;SDS011;51757;52.208;5.162;2022-08-02T21:15:34;0.00;;;0.00;;
65170;SDS011;51757;52.208;5.162;2022-08-02T21:18:00;0.00;;;0.00;;
65170;SDS011;51757;52.208;5.162;2022-08-02T21:20:25;0.00;;;0.00;;